Port Hedland, Australia
Current Conditions -  °F | °C
As of 2:00 AM on Friday 31 Oct 2014 (Local Time) from YPPD Reporting Station
Clear Clear  
Wind Chill: 79°   Ceiling: Unl
Heat Index: 80°   Visibility: 6mi
Dew Point: 61°   Wind: 10mph
Humidity: 54%   Direction: 250°WSW
Pressure: 29.71"   Gusts: NA
Location:  20.31°S, 118.58°E
Report Text: YPPD 301800Z AUTO 25009KT 9999 // NCD 26/16 Q1006
Loading
Personal Weather Stations






























Interactive Weather Map
Tropical Storm Tracking
New forecast layout! Learn more

10-Day Weather Forecast

Advertisements
Track Severe Weather on mobile